sensor_id;sensor_type;location;lat;lon;timestamp;temperature;humidity
73643;DHT22;61938;48.652;9.292;2022-07-06T00:02:00;16.30;99.90
73643;DHT22;61938;48.652;9.292;2022-07-06T00:04:26;16.20;99.90
73643;DHT22;61938;48.652;9.292;2022-07-06T00:06:52;16.10;99.90
73643;DHT22;61938;48.652;9.292;2022-07-06T00:09:18;16.00;99.90
73643;DHT22;61938;48.652;9.292;2022-07-06T00:11:43;15.90;99.90
73643;DHT22;61938;48.652;9.292;2022-07-06T00:14:09;15.90;99.90
73643;DHT22;61938;48.652;9.292;2022-07-06T00:16:35;15.70;99.90
73643;DHT22;61938;48.652;9.292;2022-07-06T00:19:01;15.70;99.90
73643;DHT22;61938;48.652;9.292;2022-07-06T00:21:27;15.60;99.90
73643;DHT22;61938;48.652;9.292;2022-07-06T00:23:52;15.50;99.90
73643;DHT22;61938;48.652;9.292;2022-07-06T00:26:19;15.40;99.90
73643;DHT22;61938;48.652;9.292;2022-07-06T00:28:45;15.30;99.90
73643;DHT22;61938;48.652;9.292;2022-07-06T00:31:11;15.20;99.90
73643;DHT22;61938;48.652;9.292;2022-07-06T00:33:37;15.20;99.90
73643;DHT22;61938;48.652;9.292;2022-07-06T00:36:03;15.20;99.90
73643;DHT22;61938;48.652;9.292;2022-07-06T00:38:29;15.10;99.90
73643;DHT22;61938;48.652;9.292;2022-07-06T00:40:55;15.00;99.90
73643;DHT22;61938;48.652;9.292;2022-07-06T00:43:21;14.90;99.90
73643;DHT22;61938;48.652;9.292;2022-07-06T00:45:46;14.90;99.90
73643;DHT22;61938;48.652;9.292;2022-07-06T00:48:12;14.80;99.90
73643;DHT22;61938;48.652;9.292;2022-07-06T00:50:38;14.80;99.90
73643;DHT22;61938;48.652;9.292;2022-07-06T00:53:06;14.80;99.90
73643;DHT22;61938;48.652;9.292;2022-07-06T00:55:38;14.80;99.90
73643;DHT22;61938;48.652;9.292;2022-07-06T00:58:06;14.80;99.90
73643;DHT22;61938;48.652;9.292;2022-07-06T01:00:33;14.80;99.90
73643;DHT22;61938;48.652;9.292;2022-07-06T01:02:59;14.70;99.90
73643;DHT22;61938;48.652;9.292;2022-07-06T01:05:25;14.60;99.90
73643;DHT22;61938;48.652;9.292;2022-07-06T01:07:52;14.60;99.90
73643;DHT22;61938;48.652;9.292;2022-07-06T01:10:19;14.40;99.90
73643;DHT22;61938;48.652;9.292;2022-07-06T01:12:46;14.40;99.90
73643;DHT22;61938;48.652;9.292;2022-07-06T01:15:15;14.40;99.90
73643;DHT22;61938;48.652;9.292;2022-07-06T01:17:42;14.40;99.90
73643;DHT22;61938;48.652;9.292;2022-07-06T01:20:16;14.40;99.90
73643;DHT22;61938;48.652;9.292;2022-07-06T01:22:43;14.40;99.90
73643;DHT22;61938;48.652;9.292;2022-07-06T01:25:09;14.30;99.90
73643;DHT22;61938;48.652;9.292;2022-07-06T01:27:37;14.20;99.90
73643;DHT22;61938;48.652;9.292;2022-07-06T01:30:11;14.20;99.90
73643;DHT22;61938;48.652;9.292;2022-07-06T01:32:38;14.10;99.90
73643;DHT22;61938;48.652;9.292;2022-07-06T01:35:06;14.20;99.90
73643;DHT22;61938;48.652;9.292;2022-07-06T01:37:32;14.10;99.90
73643;DHT22;61938;48.652;9.292;2022-07-06T01:39:59;14.10;99.90
73643;DHT22;61938;48.652;9.292;2022-07-06T01:42:25;14.10;99.90
73643;DHT22;61938;48.652;9.292;2022-07-06T01:44:51;14.00;99.90
73643;DHT22;61938;48.652;9.292;2022-07-06T01:47:17;14.00;99.90
73643;DHT22;61938;48.652;9.292;2022-07-06T01:49:43;14.00;99.90
73643;DHT22;61938;48.652;9.292;2022-07-06T01:52:08;13.90;99.90
73643;DHT22;61938;48.652;9.292;2022-07-06T01:54:34;13.90;99.90
73643;DHT22;61938;48.652;9.292;2022-07-06T01:57:00;13.90;99.90
73643;DHT22;61938;48.652;9.292;2022-07-06T01:59:26;13.80;99.90
73643;DHT22;61938;48.652;9.292;2022-07-06T02:01:52;13.80;99.90
73643;DHT22;61938;48.652;9.292;2022-07-06T02:04:17;13.80;99.90
73643;DHT22;61938;48.652;9.292;2022-07-06T02:06:43;13.70;99.90
73643;DHT22;61938;48.652;9.292;2022-07-06T02:09:09;13.70;99.90
73643;DHT22;61938;48.652;9.292;2022-07-06T02:11:35;13.70;99.90
73643;DHT22;61938;48.652;9.292;2022-07-06T02:14:00;13.60;99.90
73643;DHT22;61938;48.652;9.292;2022-07-06T02:16:26;13.60;99.90
73643;DHT22;61938;48.652;9.292;2022-07-06T02:18:52;13.60;99.90
73643;DHT22;61938;48.652;9.292;2022-07-06T02:21:18;13.60;99.90
73643;DHT22;61938;48.652;9.292;2022-07-06T02:23:43;13.50;99.90
73643;DHT22;61938;48.652;9.292;2022-07-06T02:26:09;13.60;99.90
73643;DHT22;61938;48.652;9.292;2022-07-06T02:28:35;13.50;99.90
73643;DHT22;61938;48.652;9.292;2022-07-06T02:31:01;13.40;99.90
73643;DHT22;61938;48.652;9.292;2022-07-06T02:33:26;13.30;99.90
73643;DHT22;61938;48.652;9.292;2022-07-06T02:35:52;13.40;99.90
73643;DHT22;61938;48.652;9.292;2022-07-06T02:38:18;13.30;99.90
73643;DHT22;61938;48.652;9.292;2022-07-06T02:40:44;13.20;99.90
73643;DHT22;61938;48.652;9.292;2022-07-06T02:43:10;13.20;99.90
73643;DHT22;61938;48.652;9.292;2022-07-06T02:45:36;13.20;99.90
73643;DHT22;61938;48.652;9.292;2022-07-06T02:48:02;13.20;99.90
73643;DHT22;61938;48.652;9.292;2022-07-06T02:50:28;13.20;99.90
73643;DHT22;61938;48.652;9.292;2022-07-06T02:52:54;13.20;99.90
73643;DHT22;61938;48.652;9.292;2022-07-06T02:55:20;13.20;99.90
73643;DHT22;61938;48.652;9.292;2022-07-06T02:57:46;13.20;99.90
73643;DHT22;61938;48.652;9.292;2022-07-06T03:00:13;13.20;99.90
73643;DHT22;61938;48.652;9.292;2022-07-06T03:02:39;13.10;99.90
73643;DHT22;61938;48.652;9.292;2022-07-06T03:05:05;13.10;99.90
73643;DHT22;61938;48.652;9.292;2022-07-06T03:07:31;13.00;99.90
73643;DHT22;61938;48.652;9.292;2022-07-06T03:09:57;13.00;99.90
73643;DHT22;61938;48.652;9.292;2022-07-06T03:12:23;13.00;99.90
73643;DHT22;61938;48.652;9.292;2022-07-06T03:14:48;13.00;99.90
73643;DHT22;61938;48.652;9.292;2022-07-06T03:17:14;13.00;99.90
73643;DHT22;61938;48.652;9.292;2022-07-06T03:19:40;12.90;99.90
73643;DHT22;61938;48.652;9.292;2022-07-06T03:22:06;12.90;99.90
73643;DHT22;61938;48.652;9.292;2022-07-06T03:24:31;12.90;99.90
73643;DHT22;61938;48.652;9.292;2022-07-06T03:26:57;12.80;99.90
73643;DHT22;61938;48.652;9.292;2022-07-06T03:29:23;12.90;99.90
73643;DHT22;61938;48.652;9.292;2022-07-06T03:31:49;12.90;99.90
73643;DHT22;61938;48.652;9.292;2022-07-06T03:34:14;12.90;99.90
73643;DHT22;61938;48.652;9.292;2022-07-06T03:36:40;12.90;99.90
73643;DHT22;61938;48.652;9.292;2022-07-06T03:39:06;12.90;99.90
73643;DHT22;61938;48.652;9.292;2022-07-06T03:41:32;12.90;99.90
73643;DHT22;61938;48.652;9.292;2022-07-06T03:43:59;12.80;99.90
73643;DHT22;61938;48.652;9.292;2022-07-06T03:46:25;12.80;99.90
73643;DHT22;61938;48.652;9.292;2022-07-06T03:48:50;12.80;99.90
73643;DHT22;61938;48.652;9.292;2022-07-06T03:51:16;12.80;99.90
73643;DHT22;61938;48.652;9.292;2022-07-06T03:53:42;12.90;99.90
73643;DHT22;61938;48.652;9.292;2022-07-06T03:56:08;12.90;99.90
73643;DHT22;61938;48.652;9.292;2022-07-06T03:58:52;13.00;99.90
73643;DHT22;61938;48.652;9.292;2022-07-06T04:01:18;13.00;99.90
73643;DHT22;61938;48.652;9.292;2022-07-06T04:03:43;13.10;99.90
73643;DHT22;61938;48.652;9.292;2022-07-06T04:06:10;13.10;99.90
73643;DHT22;61938;48.652;9.292;2022-07-06T04:08:36;13.10;99.90
73643;DHT22;61938;48.652;9.292;2022-07-06T04:11:02;13.10;99.90
73643;DHT22;61938;48.652;9.292;2022-07-06T04:13:28;13.10;99.90
73643;DHT22;61938;48.652;9.292;2022-07-06T04:15:53;13.10;99.90
73643;DHT22;61938;48.652;9.292;2022-07-06T04:18:19;13.10;99.90
73643;DHT22;61938;48.652;9.292;2022-07-06T04:20:45;13.10;99.90
73643;DHT22;61938;48.652;9.292;2022-07-06T04:23:11;13.20;99.90
73643;DHT22;61938;48.652;9.292;2022-07-06T04:25:37;13.20;99.90
73643;DHT22;61938;48.652;9.292;2022-07-06T04:28:03;13.20;99.90
73643;DHT22;61938;48.652;9.292;2022-07-06T04:30:29;13.30;99.90
73643;DHT22;61938;48.652;9.292;2022-07-06T04:32:55;13.30;99.90
73643;DHT22;61938;48.652;9.292;2022-07-06T04:35:21;13.30;99.90
73643;DHT22;61938;48.652;9.292;2022-07-06T04:37:47;13.40;99.90
73643;DHT22;61938;48.652;9.292;2022-07-06T04:40:14;13.40;99.90
73643;DHT22;61938;48.652;9.292;2022-07-06T04:42:40;13.50;99.90
73643;DHT22;61938;48.652;9.292;2022-07-06T04:45:06;13.50;99.90
73643;DHT22;61938;48.652;9.292;2022-07-06T04:47:32;13.50;99.90
73643;DHT22;61938;48.652;9.292;2022-07-06T04:49:58;13.60;99.90
73643;DHT22;61938;48.652;9.292;2022-07-06T04:52:24;13.70;99.90
73643;DHT22;61938;48.652;9.292;2022-07-06T04:54:49;13.90;99.90
73643;DHT22;61938;48.652;9.292;2022-07-06T04:57:15;14.00;99.90
73643;DHT22;61938;48.652;9.292;2022-07-06T04:59:41;14.00;99.90
73643;DHT22;61938;48.652;9.292;2022-07-06T05:02:06;14.10;99.90
73643;DHT22;61938;48.652;9.292;2022-07-06T05:04:32;14.20;99.90
73643;DHT22;61938;48.652;9.292;2022-07-06T05:06:58;14.30;99.90
73643;DHT22;61938;48.652;9.292;2022-07-06T05:09:24;14.30;99.90
73643;DHT22;61938;48.652;9.292;2022-07-06T05:11:50;14.40;99.90
73643;DHT22;61938;48.652;9.292;2022-07-06T05:14:16;14.60;99.90
73643;DHT22;61938;48.652;9.292;2022-07-06T05:16:42;14.70;99.90
73643;DHT22;61938;48.652;9.292;2022-07-06T05:19:08;14.90;99.90
73643;DHT22;61938;48.652;9.292;2022-07-06T05:21:34;15.00;99.90
73643;DHT22;61938;48.652;9.292;2022-07-06T05:23:59;15.10;99.90
73643;DHT22;61938;48.652;9.292;2022-07-06T05:26:25;15.20;99.90
73643;DHT22;61938;48.652;9.292;2022-07-06T05:28:51;15.30;99.90
73643;DHT22;61938;48.652;9.292;2022-07-06T05:31:16;15.40;99.90
73643;DHT22;61938;48.652;9.292;2022-07-06T05:33:42;15.50;99.90
73643;DHT22;61938;48.652;9.292;2022-07-06T05:36:08;15.70;99.90
73643;DHT22;61938;48.652;9.292;2022-07-06T05:38:34;15.80;99.90
73643;DHT22;61938;48.652;9.292;2022-07-06T05:40:59;15.90;99.90
73643;DHT22;61938;48.652;9.292;2022-07-06T05:43:25;16.00;99.90
73643;DHT22;61938;48.652;9.292;2022-07-06T05:45:51;16.00;99.90
73643;DHT22;61938;48.652;9.292;2022-07-06T05:48:17;16.10;99.90
73643;DHT22;61938;48.652;9.292;2022-07-06T05:51:01;16.30;99.90
73643;DHT22;61938;48.652;9.292;2022-07-06T05:53:27;16.40;99.90
73643;DHT22;61938;48.652;9.292;2022-07-06T05:55:53;16.50;99.90
73643;DHT22;61938;48.652;9.292;2022-07-06T05:58:19;16.70;99.90
73643;DHT22;61938;48.652;9.292;2022-07-06T06:00:44;16.80;99.90
73643;DHT22;61938;48.652;9.292;2022-07-06T06:03:10;17.00;99.90
73643;DHT22;61938;48.652;9.292;2022-07-06T06:05:36;17.10;99.90
73643;DHT22;61938;48.652;9.292;2022-07-06T06:08:02;17.30;99.90
73643;DHT22;61938;48.652;9.292;2022-07-06T06:10:28;17.40;99.90
73643;DHT22;61938;48.652;9.292;2022-07-06T06:12:54;17.50;99.90
73643;DHT22;61938;48.652;9.292;2022-07-06T06:15:19;17.70;99.90
73643;DHT22;61938;48.652;9.292;2022-07-06T06:17:45;17.80;99.90
73643;DHT22;61938;48.652;9.292;2022-07-06T06:20:14;18.00;99.90
73643;DHT22;61938;48.652;9.292;2022-07-06T06:22:54;18.10;99.90
73643;DHT22;61938;48.652;9.292;2022-07-06T06:25:27;18.30;99.90
73643;DHT22;61938;48.652;9.292;2022-07-06T06:27:52;18.40;99.90
73643;DHT22;61938;48.652;9.292;2022-07-06T06:30:18;18.60;99.90
73643;DHT22;61938;48.652;9.292;2022-07-06T06:32:44;18.60;99.90
73643;DHT22;61938;48.652;9.292;2022-07-06T06:35:10;18.60;99.90
73643;DHT22;61938;48.652;9.292;2022-07-06T06:37:36;18.60;99.90
73643;DHT22;61938;48.652;9.292;2022-07-06T06:40:02;18.60;99.90
73643;DHT22;61938;48.652;9.292;2022-07-06T06:42:28;18.70;99.90
73643;DHT22;61938;48.652;9.292;2022-07-06T06:44:54;18.80;99.90
73643;DHT22;61938;48.652;9.292;2022-07-06T06:47:20;18.80;99.90
73643;DHT22;61938;48.652;9.292;2022-07-06T06:49:46;18.90;99.90
73643;DHT22;61938;48.652;9.292;2022-07-06T06:52:12;19.10;99.90
73643;DHT22;61938;48.652;9.292;2022-07-06T06:54:38;19.20;99.90
73643;DHT22;61938;48.652;9.292;2022-07-06T06:57:04;19.30;99.90
73643;DHT22;61938;48.652;9.292;2022-07-06T06:59:29;19.30;99.90
73643;DHT22;61938;48.652;9.292;2022-07-06T07:01:55;19.30;99.90
73643;DHT22;61938;48.652;9.292;2022-07-06T07:04:21;19.50;99.90
73643;DHT22;61938;48.652;9.292;2022-07-06T07:06:47;19.60;99.90
73643;DHT22;61938;48.652;9.292;2022-07-06T07:09:12;19.60;99.90
73643;DHT22;61938;48.652;9.292;2022-07-06T07:11:38;19.60;99.90
73643;DHT22;61938;48.652;9.292;2022-07-06T07:14:04;19.50;99.90
73643;DHT22;61938;48.652;9.292;2022-07-06T07:16:29;19.60;99.90
73643;DHT22;61938;48.652;9.292;2022-07-06T07:18:55;19.60;99.90
73643;DHT22;61938;48.652;9.292;2022-07-06T07:21:21;19.70;99.90
73643;DHT22;61938;48.652;9.292;2022-07-06T07:23:47;19.80;99.90
73643;DHT22;61938;48.652;9.292;2022-07-06T07:26:15;19.80;99.90
73643;DHT22;61938;48.652;9.292;2022-07-06T07:28:40;19.90;99.90
73643;DHT22;61938;48.652;9.292;2022-07-06T07:31:06;19.80;99.90
73643;DHT22;61938;48.652;9.292;2022-07-06T07:33:32;19.70;99.90
73643;DHT22;61938;48.652;9.292;2022-07-06T07:35:59;19.90;99.90
73643;DHT22;61938;48.652;9.292;2022-07-06T07:38:24;20.10;99.90
73643;DHT22;61938;48.652;9.292;2022-07-06T07:40:50;20.10;99.90
73643;DHT22;61938;48.652;9.292;2022-07-06T07:43:16;20.00;99.90
73643;DHT22;61938;48.652;9.292;2022-07-06T07:45:41;20.00;99.90
73643;DHT22;61938;48.652;9.292;2022-07-06T07:48:07;20.10;99.90
73643;DHT22;61938;48.652;9.292;2022-07-06T07:50:33;20.30;99.90
73643;DHT22;61938;48.652;9.292;2022-07-06T07:53:00;20.30;99.90
73643;DHT22;61938;48.652;9.292;2022-07-06T07:55:26;20.50;99.90
73643;DHT22;61938;48.652;9.292;2022-07-06T07:57:52;20.50;99.90
73643;DHT22;61938;48.652;9.292;2022-07-06T08:00:18;20.60;99.90
73643;DHT22;61938;48.652;9.292;2022-07-06T08:02:43;20.60;99.90
73643;DHT22;61938;48.652;9.292;2022-07-06T08:05:09;20.50;99.90
73643;DHT22;61938;48.652;9.292;2022-07-06T08:07:39;20.60;99.90
73643;DHT22;61938;48.652;9.292;2022-07-06T08:10:05;20.70;99.90
73643;DHT22;61938;48.652;9.292;2022-07-06T08:12:31;20.70;99.90
73643;DHT22;61938;48.652;9.292;2022-07-06T08:14:56;20.60;99.90
73643;DHT22;61938;48.652;9.292;2022-07-06T08:17:22;20.50;99.90
73643;DHT22;61938;48.652;9.292;2022-07-06T08:19:48;20.70;99.90
73643;DHT22;61938;48.652;9.292;2022-07-06T08:22:14;20.80;99.90
73643;DHT22;61938;48.652;9.292;2022-07-06T08:24:39;20.80;99.90
73643;DHT22;61938;48.652;9.292;2022-07-06T08:27:05;20.90;99.90
73643;DHT22;61938;48.652;9.292;2022-07-06T08:29:31;20.90;99.90
73643;DHT22;61938;48.652;9.292;2022-07-06T08:31:57;20.90;99.90
73643;DHT22;61938;48.652;9.292;2022-07-06T08:34:23;20.80;99.90
73643;DHT22;61938;48.652;9.292;2022-07-06T08:36:49;20.80;99.90
73643;DHT22;61938;48.652;9.292;2022-07-06T08:39:15;20.90;99.90
73643;DHT22;61938;48.652;9.292;2022-07-06T08:41:42;21.00;99.90
73643;DHT22;61938;48.652;9.292;2022-07-06T08:44:09;21.10;99.90
73643;DHT22;61938;48.652;9.292;2022-07-06T08:46:38;21.20;99.90
73643;DHT22;61938;48.652;9.292;2022-07-06T08:49:06;21.40;99.90
73643;DHT22;61938;48.652;9.292;2022-07-06T08:51:32;21.00;99.90
73643;DHT22;61938;48.652;9.292;2022-07-06T08:54:04;21.10;99.90
73643;DHT22;61938;48.652;9.292;2022-07-06T08:56:31;21.00;99.90
73643;DHT22;61938;48.652;9.292;2022-07-06T08:58:57;20.90;99.90
73643;DHT22;61938;48.652;9.292;2022-07-06T09:01:24;21.10;99.90
73643;DHT22;61938;48.652;9.292;2022-07-06T09:03:50;21.30;99.90
73643;DHT22;61938;48.652;9.292;2022-07-06T09:06:34;21.50;99.90
73643;DHT22;61938;48.652;9.292;2022-07-06T09:09:05;21.70;99.90
73643;DHT22;61938;48.652;9.292;2022-07-06T09:11:32;21.70;99.90
73643;DHT22;61938;48.652;9.292;2022-07-06T09:13:57;21.70;99.90
73643;DHT22;61938;48.652;9.292;2022-07-06T09:16:28;21.50;99.90
73643;DHT22;61938;48.652;9.292;2022-07-06T09:18:55;21.50;99.90
73643;DHT22;61938;48.652;9.292;2022-07-06T09:21:29;21.60;99.90
73643;DHT22;61938;48.652;9.292;2022-07-06T09:24:02;21.70;99.90
73643;DHT22;61938;48.652;9.292;2022-07-06T09:26:28;21.60;99.90
73643;DHT22;61938;48.652;9.292;2022-07-06T09:28:58;21.70;99.90
73643;DHT22;61938;48.652;9.292;2022-07-06T09:31:27;21.90;99.90
73643;DHT22;61938;48.652;9.292;2022-07-06T09:33:58;21.90;99.90
73643;DHT22;61938;48.652;9.292;2022-07-06T09:36:41;21.90;99.90
73643;DHT22;61938;48.652;9.292;2022-07-06T09:39:28;21.90;99.90
73643;DHT22;61938;48.652;9.292;2022-07-06T09:41:59;22.00;99.90
73643;DHT22;61938;48.652;9.292;2022-07-06T09:44:33;22.00;99.90
73643;DHT22;61938;48.652;9.292;2022-07-06T09:47:02;22.30;99.90
73643;DHT22;61938;48.652;9.292;2022-07-06T09:49:29;22.50;99.90
73643;DHT22;61938;48.652;9.292;2022-07-06T09:51:59;22.60;99.90
73643;DHT22;61938;48.652;9.292;2022-07-06T09:54:25;22.70;99.90
73643;DHT22;61938;48.652;9.292;2022-07-06T09:56:53;22.50;99.90
73643;DHT22;61938;48.652;9.292;2022-07-06T09:59:26;22.40;99.90
73643;DHT22;61938;48.652;9.292;2022-07-06T10:01:58;22.30;99.90
73643;DHT22;61938;48.652;9.292;2022-07-06T10:04:25;22.40;99.90
73643;DHT22;61938;48.652;9.292;2022-07-06T10:06:52;22.50;99.90
73643;DHT22;61938;48.652;9.292;2022-07-06T10:09:22;22.40;99.90
73643;DHT22;61938;48.652;9.292;2022-07-06T10:11:51;22.60;99.90
73643;DHT22;61938;48.652;9.292;2022-07-06T10:14:31;22.80;99.90
73643;DHT22;61938;48.652;9.292;2022-07-06T10:17:00;23.00;99.90
73643;DHT22;61938;48.652;9.292;2022-07-06T10:19:27;23.00;99.90
73643;DHT22;61938;48.652;9.292;2022-07-06T10:21:53;23.00;99.90
73643;DHT22;61938;48.652;9.292;2022-07-06T10:24:20;23.00;99.90
73643;DHT22;61938;48.652;9.292;2022-07-06T10:26:47;23.00;99.90
73643;DHT22;61938;48.652;9.292;2022-07-06T10:29:14;23.10;99.90
73643;DHT22;61938;48.652;9.292;2022-07-06T10:31:47;23.10;99.90
73643;DHT22;61938;48.652;9.292;2022-07-06T10:34:16;22.80;99.90
73643;DHT22;61938;48.652;9.292;2022-07-06T10:36:47;22.60;99.90
73643;DHT22;61938;48.652;9.292;2022-07-06T10:39:13;22.50;99.90
73643;DHT22;61938;48.652;9.292;2022-07-06T10:41:58;22.70;99.90
73643;DHT22;61938;48.652;9.292;2022-07-06T10:44:25;22.90;99.80
73643;DHT22;61938;48.652;9.292;2022-07-06T10:46:57;23.00;99.90
73643;DHT22;61938;48.652;9.292;2022-07-06T10:49:24;23.00;99.90
73643;DHT22;61938;48.652;9.292;2022-07-06T10:51:50;23.20;99.90
73643;DHT22;61938;48.652;9.292;2022-07-06T10:54:18;23.10;99.50
73643;DHT22;61938;48.652;9.292;2022-07-06T10:56:51;23.10;99.90
73643;DHT22;61938;48.652;9.292;2022-07-06T10:59:19;23.20;99.90
73643;DHT22;61938;48.652;9.292;2022-07-06T11:02:14;23.30;99.80
73643;DHT22;61938;48.652;9.292;2022-07-06T11:04:47;23.40;99.90
73643;DHT22;61938;48.652;9.292;2022-07-06T11:07:18;23.60;99.40
73643;DHT22;61938;48.652;9.292;2022-07-06T11:10:09;23.60;98.40
73643;DHT22;61938;48.652;9.292;2022-07-06T11:12:35;23.10;96.50
73643;DHT22;61938;48.652;9.292;2022-07-06T11:15:01;22.70;99.90
73643;DHT22;61938;48.652;9.292;2022-07-06T11:17:27;22.80;99.90
73643;DHT22;61938;48.652;9.292;2022-07-06T11:19:58;22.90;99.90
73643;DHT22;61938;48.652;9.292;2022-07-06T11:22:24;23.00;99.90
73643;DHT22;61938;48.652;9.292;2022-07-06T11:24:52;23.30;99.90
73643;DHT22;61938;48.652;9.292;2022-07-06T11:27:18;23.40;99.10
73643;DHT22;61938;48.652;9.292;2022-07-06T11:29:44;23.50;99.30
73643;DHT22;61938;48.652;9.292;2022-07-06T11:32:11;23.70;98.10
73643;DHT22;61938;48.652;9.292;2022-07-06T11:34:41;23.90;99.90
73643;DHT22;61938;48.652;9.292;2022-07-06T11:37:13;23.90;99.20
73643;DHT22;61938;48.652;9.292;2022-07-06T11:39:44;23.80;97.40
73643;DHT22;61938;48.652;9.292;2022-07-06T11:42:13;24.00;98.40
73643;DHT22;61938;48.652;9.292;2022-07-06T11:44:40;24.20;99.20
73643;DHT22;61938;48.652;9.292;2022-07-06T11:47:07;24.40;98.50
73643;DHT22;61938;48.652;9.292;2022-07-06T11:49:35;24.60;99.00
73643;DHT22;61938;48.652;9.292;2022-07-06T11:52:06;24.50;98.00
73643;DHT22;61938;48.652;9.292;2022-07-06T11:54:32;24.40;97.80
73643;DHT22;61938;48.652;9.292;2022-07-06T11:56:59;24.60;99.30
73643;DHT22;61938;48.652;9.292;2022-07-06T11:59:36;24.50;97.20
73643;DHT22;61938;48.652;9.292;2022-07-06T12:02:06;24.50;97.60
73643;DHT22;61938;48.652;9.292;2022-07-06T12:04:35;24.70;96.60
73643;DHT22;61938;48.652;9.292;2022-07-06T12:07:03;24.70;97.40
73643;DHT22;61938;48.652;9.292;2022-07-06T12:09:42;24.80;97.20
73643;DHT22;61938;48.652;9.292;2022-07-06T12:12:08;24.90;98.60
73643;DHT22;61938;48.652;9.292;2022-07-06T12:14:37;24.90;94.70
73643;DHT22;61938;48.652;9.292;2022-07-06T12:17:13;24.60;94.80
73643;DHT22;61938;48.652;9.292;2022-07-06T12:19:40;24.00;95.60
73643;DHT22;61938;48.652;9.292;2022-07-06T12:22:08;23.60;96.80
73643;DHT22;61938;48.652;9.292;2022-07-06T12:24:35;23.70;98.00
73643;DHT22;61938;48.652;9.292;2022-07-06T12:27:12;23.80;99.90
73643;DHT22;61938;48.652;9.292;2022-07-06T12:29:38;24.00;98.40
73643;DHT22;61938;48.652;9.292;2022-07-06T12:32:04;24.00;99.20
73643;DHT22;61938;48.652;9.292;2022-07-06T12:34:31;23.90;96.80
73643;DHT22;61938;48.652;9.292;2022-07-06T12:37:05;23.70;96.50
73643;DHT22;61938;48.652;9.292;2022-07-06T12:39:31;23.70;99.50
73643;DHT22;61938;48.652;9.292;2022-07-06T12:42:04;23.50;97.80
73643;DHT22;61938;48.652;9.292;2022-07-06T12:44:32;23.40;97.50
73643;DHT22;61938;48.652;9.292;2022-07-06T12:47:03;23.30;97.50
73643;DHT22;61938;48.652;9.292;2022-07-06T12:49:30;23.20;97.90
73643;DHT22;61938;48.652;9.292;2022-07-06T12:52:17;23.30;99.20
73643;DHT22;61938;48.652;9.292;2022-07-06T12:54:49;23.30;98.40
73643;DHT22;61938;48.652;9.292;2022-07-06T12:57:20;23.30;98.10
73643;DHT22;61938;48.652;9.292;2022-07-06T12:59:56;23.10;97.90
73643;DHT22;61938;48.652;9.292;2022-07-06T13:02:33;23.00;98.50
73643;DHT22;61938;48.652;9.292;2022-07-06T13:05:08;22.90;99.90
73643;DHT22;61938;48.652;9.292;2022-07-06T13:07:37;23.00;99.90
73643;DHT22;61938;48.652;9.292;2022-07-06T13:12:31;23.00;99.90
73643;DHT22;61938;48.652;9.292;2022-07-06T13:14:57;23.00;98.00
73643;DHT22;61938;48.652;9.292;2022-07-06T13:17:23;23.10;98.80
73643;DHT22;61938;48.652;9.292;2022-07-06T13:19:49;23.10;99.50
73643;DHT22;61938;48.652;9.292;2022-07-06T13:22:15;23.40;99.90
73643;DHT22;61938;48.652;9.292;2022-07-06T13:24:41;23.50;98.40
73643;DHT22;61938;48.652;9.292;2022-07-06T13:27:06;23.60;98.00
73643;DHT22;61938;48.652;9.292;2022-07-06T13:29:32;23.80;99.20
73643;DHT22;61938;48.652;9.292;2022-07-06T13:31:58;23.70;96.60
73643;DHT22;61938;48.652;9.292;2022-07-06T13:34:24;23.70;98.50
73643;DHT22;61938;48.652;9.292;2022-07-06T13:36:50;24.00;98.00
73643;DHT22;61938;48.652;9.292;2022-07-06T13:39:16;24.10;98.40
73643;DHT22;61938;48.652;9.292;2022-07-06T13:41:42;24.20;98.50
73643;DHT22;61938;48.652;9.292;2022-07-06T13:44:08;24.40;98.00
73643;DHT22;61938;48.652;9.292;2022-07-06T13:46:35;24.30;94.40
73643;DHT22;61938;48.652;9.292;2022-07-06T13:49:03;24.30;97.80
73643;DHT22;61938;48.652;9.292;2022-07-06T13:51:29;24.40;96.10
73643;DHT22;61938;48.652;9.292;2022-07-06T13:53:57;24.40;95.40
73643;DHT22;61938;48.652;9.292;2022-07-06T13:56:22;24.30;95.50
73643;DHT22;61938;48.652;9.292;2022-07-06T13:58:48;24.30;95.70
73643;DHT22;61938;48.652;9.292;2022-07-06T14:01:15;24.20;96.10
73643;DHT22;61938;48.652;9.292;2022-07-06T14:03:40;24.20;95.10
73643;DHT22;61938;48.652;9.292;2022-07-06T14:06:07;24.10;95.10
73643;DHT22;61938;48.652;9.292;2022-07-06T14:08:37;24.20;95.40
73643;DHT22;61938;48.652;9.292;2022-07-06T14:11:04;24.20;96.00
73643;DHT22;61938;48.652;9.292;2022-07-06T14:13:30;24.10;94.40
73643;DHT22;61938;48.652;9.292;2022-07-06T14:15:56;24.00;94.20
73643;DHT22;61938;48.652;9.292;2022-07-06T14:18:23;23.60;94.80
73643;DHT22;61938;48.652;9.292;2022-07-06T14:20:50;23.50;95.30
73643;DHT22;61938;48.652;9.292;2022-07-06T14:23:16;23.50;96.40
73643;DHT22;61938;48.652;9.292;2022-07-06T14:25:42;23.80;95.40
73643;DHT22;61938;48.652;9.292;2022-07-06T14:28:09;24.00;95.70
73643;DHT22;61938;48.652;9.292;2022-07-06T14:30:36;24.20;95.00
73643;DHT22;61938;48.652;9.292;2022-07-06T14:33:06;24.40;96.30
73643;DHT22;61938;48.652;9.292;2022-07-06T14:35:39;24.40;93.70
73643;DHT22;61938;48.652;9.292;2022-07-06T14:38:06;24.30;94.80
73643;DHT22;61938;48.652;9.292;2022-07-06T14:40:33;24.30;95.10
73643;DHT22;61938;48.652;9.292;2022-07-06T14:42:59;24.20;93.10
73643;DHT22;61938;48.652;9.292;2022-07-06T14:45:25;24.20;94.50
73643;DHT22;61938;48.652;9.292;2022-07-06T14:47:51;24.40;94.30
73643;DHT22;61938;48.652;9.292;2022-07-06T14:50:17;24.50;93.00
73643;DHT22;61938;48.652;9.292;2022-07-06T14:52:43;24.30;91.80
73643;DHT22;61938;48.652;9.292;2022-07-06T14:55:09;24.10;93.30
73643;DHT22;61938;48.652;9.292;2022-07-06T14:57:35;23.90;91.90
73643;DHT22;61938;48.652;9.292;2022-07-06T15:00:01;23.80;93.40
73643;DHT22;61938;48.652;9.292;2022-07-06T15:02:28;23.70;94.20
73643;DHT22;61938;48.652;9.292;2022-07-06T15:04:54;23.90;94.90
73643;DHT22;61938;48.652;9.292;2022-07-06T15:07:19;24.00;95.00
73643;DHT22;61938;48.652;9.292;2022-07-06T15:09:45;24.20;93.30
73643;DHT22;61938;48.652;9.292;2022-07-06T15:12:11;24.30;92.90
73643;DHT22;61938;48.652;9.292;2022-07-06T15:14:37;24.20;92.20
73643;DHT22;61938;48.652;9.292;2022-07-06T15:17:03;24.20;93.20
73643;DHT22;61938;48.652;9.292;2022-07-06T15:19:29;24.10;91.60
73643;DHT22;61938;48.652;9.292;2022-07-06T15:21:55;24.00;91.90
73643;DHT22;61938;48.652;9.292;2022-07-06T15:24:21;24.00;92.40
73643;DHT22;61938;48.652;9.292;2022-07-06T15:26:48;23.80;91.10
73643;DHT22;61938;48.652;9.292;2022-07-06T15:29:14;23.80;93.10
73643;DHT22;61938;48.652;9.292;2022-07-06T15:31:39;23.70;92.20
73643;DHT22;61938;48.652;9.292;2022-07-06T15:34:05;23.60;93.00